createdAt,value
2018-09-21T12:32:52.016Z,26.86
2018-09-21T12:33:51.849Z,26.99
2018-09-21T12:35:44.558Z,26.99
2018-09-21T12:36:44.444Z,26.98
2018-09-21T12:38:37.316Z,26.80
2018-09-21T12:39:37.104Z,26.74
2018-09-21T12:41:29.721Z,26.47
2018-09-21T12:42:29.570Z,26.29
2018-09-21T12:44:22.374Z,25.65
2018-09-21T12:45:22.059Z,25.16
2018-09-21T12:47:15.594Z,25.05
2018-09-21T12:48:15.471Z,25.22
2018-09-21T12:50:08.243Z,25.32
2018-09-21T12:51:08.031Z,25.56
2018-09-21T12:53:00.747Z,26.27
2018-09-21T12:54:00.589Z,26.54
2018-09-21T12:55:53.301Z,26.86
2018-09-21T12:56:53.151Z,27.31
2018-09-21T12:58:45.876Z,26.79
2018-09-21T12:59:45.708Z,26.79
2018-09-21T13:01:39.273Z,26.81
2018-09-21T13:02:39.187Z,27.39
2018-09-21T13:04:31.801Z,27.28
2018-09-21T13:05:31.678Z,27.64
2018-09-21T13:07:24.450Z,28.25
2018-09-21T13:08:24.306Z,28.44
2018-09-21T13:09:24.191Z,28.72
2018-09-21T13:10:24.078Z,28.69
2018-09-21T13:11:24.058Z,28.54
2018-09-21T13:12:23.866Z,28.68
2018-09-21T13:13:23.738Z,28.82
2018-09-21T13:14:23.645Z,29.01
2018-09-21T13:15:23.517Z,28.95
2018-09-21T13:16:23.461Z,28.80
2018-09-21T13:17:23.989Z,28.80
2018-09-21T13:18:23.179Z,29.01
2018-09-21T13:19:23.067Z,29.34
2018-09-21T13:20:22.955Z,29.49
2018-09-21T13:21:22.842Z,29.66
2018-09-21T13:22:22.733Z,29.50
2018-09-21T13:23:22.624Z,29.60
2018-09-21T13:24:22.509Z,29.40
2018-09-21T13:25:22.398Z,29.52
2018-09-21T13:26:22.287Z,29.57
2018-09-21T13:27:22.177Z,28.96
2018-09-21T13:28:22.065Z,28.28
2018-09-21T13:29:21.953Z,27.66
2018-09-21T13:30:21.841Z,27.06
2018-09-21T13:31:21.730Z,26.36
2018-09-21T13:32:21.684Z,25.69
2018-09-21T13:33:21.508Z,25.52
2018-09-21T13:34:21.396Z,25.22
2018-09-21T13:35:21.285Z,24.97
2018-09-21T13:36:21.177Z,24.83
2018-09-21T13:37:21.058Z,24.47
2018-09-21T13:38:20.947Z,24.16
2018-09-21T13:39:20.836Z,24.07
2018-09-21T13:40:20.721Z,24.13
2018-09-21T13:41:20.608Z,24.16
2018-09-21T13:42:20.495Z,24.20
2018-09-21T13:43:20.381Z,23.80
2018-09-21T13:44:20.267Z,23.77
2018-09-21T13:45:20.202Z,23.64
2018-09-21T13:46:20.040Z,23.67
2018-09-21T13:47:19.925Z,23.71
2018-09-21T13:48:19.809Z,23.65
2018-09-21T13:49:19.696Z,23.67
2018-09-21T13:50:19.581Z,23.65
2018-09-21T13:51:19.468Z,23.49
2018-09-21T13:52:19.352Z,23.46
2018-09-21T13:53:19.238Z,23.42
2018-09-21T13:54:19.497Z,23.20
2018-09-21T13:55:19.008Z,23.19
2018-09-21T13:56:18.892Z,23.08
2018-09-21T13:57:18.776Z,22.83
2018-09-21T13:58:18.669Z,22.83
2018-09-21T13:59:18.592Z,22.65
2018-09-21T14:00:18.431Z,22.72
2018-09-21T14:01:18.321Z,22.78
2018-09-21T14:02:18.215Z,22.71
2018-09-21T14:03:18.103Z,22.60
2018-09-21T14:04:17.965Z,22.60
2018-09-21T14:05:17.891Z,22.53
2018-09-21T14:06:17.793Z,22.54
2018-09-21T14:07:17.620Z,22.71
2018-09-21T14:08:17.504Z,22.75
2018-09-21T14:09:17.385Z,22.69
2018-09-21T14:10:17.339Z,22.68
2018-09-21T14:11:17.223Z,22.67
2018-09-21T14:12:17.038Z,22.65
2018-09-21T14:13:16.919Z,22.52
2018-09-21T14:14:16.804Z,22.59
2018-09-21T14:15:16.690Z,22.62
2018-09-21T14:16:16.571Z,22.62
2018-09-21T14:17:16.456Z,22.64
2018-09-21T14:18:16.340Z,22.74
2018-09-21T14:19:16.225Z,22.75
2018-09-21T14:20:16.104Z,22.89
2018-09-21T14:21:16.041Z,22.83
2018-09-21T14:22:15.874Z,22.97
2018-09-21T14:23:15.756Z,23.04
2018-09-21T14:24:15.679Z,22.83
2018-09-21T14:25:15.577Z,22.84
2018-09-21T14:26:15.409Z,22.86
2018-09-21T14:27:15.292Z,22.84
2018-09-21T14:28:15.176Z,22.74
2018-09-21T14:29:15.062Z,22.68
2018-09-21T14:30:15.008Z,22.71
2018-09-21T14:31:14.825Z,22.67
2018-09-21T14:32:14.710Z,22.74
2018-09-21T14:33:14.608Z,22.75
2018-09-21T14:34:14.479Z,22.78
2018-09-21T14:35:14.362Z,22.75
2018-09-21T14:36:14.247Z,22.72
2018-09-21T14:37:14.129Z,22.80
2018-09-21T14:38:14.013Z,22.59
2018-09-21T14:39:13.897Z,22.60
2018-09-21T14:40:13.784Z,22.52
2018-09-21T14:41:13.662Z,22.47
2018-09-21T14:42:13.546Z,22.41
2018-09-21T14:43:13.448Z,22.34
2018-09-21T14:44:13.314Z,22.19
2018-09-21T14:45:13.196Z,22.23
2018-09-21T14:46:13.082Z,22.25
2018-09-21T14:47:12.962Z,22.16
2018-09-21T14:48:12.847Z,22.12
2018-09-21T14:49:12.730Z,22.10
2018-09-21T14:50:12.613Z,22.10
2018-09-21T14:51:12.502Z,22.13
2018-09-21T14:52:12.378Z,22.16
2018-09-21T14:53:12.264Z,22.19
2018-09-21T14:54:12.146Z,22.16
2018-09-21T14:55:12.031Z,22.25
2018-09-21T14:56:11.917Z,22.12
2018-09-21T14:57:11.793Z,22.22
2018-09-21T14:58:11.677Z,22.10
2018-09-21T14:59:11.638Z,22.13
2018-09-21T15:00:11.443Z,22.10
2018-09-21T15:01:11.327Z,22.28
2018-09-21T15:02:11.209Z,22.10
2018-09-21T15:03:11.288Z,22.14
2018-09-21T15:04:10.978Z,22.28
2018-09-21T15:05:10.860Z,22.20
2018-09-21T15:06:10.748Z,22.19
2018-09-21T15:07:10.625Z,22.27
2018-09-21T15:08:10.509Z,22.29
2018-09-21T15:09:10.394Z,22.16
2018-09-21T15:10:10.275Z,22.10
2018-09-21T15:11:10.158Z,22.01
2018-09-21T15:12:10.044Z,21.95
2018-09-21T15:13:09.933Z,21.75
2018-09-21T15:14:09.810Z,21.69
2018-09-21T15:15:09.697Z,21.63
2018-09-21T15:16:09.590Z,21.57
2018-09-21T15:17:09.464Z,21.56
2018-09-21T15:18:09.354Z,21.45
2018-09-21T15:19:09.223Z,21.45
2018-09-21T15:20:09.104Z,21.51
2018-09-21T15:21:09.031Z,21.53
2018-09-21T15:22:08.882Z,21.39
2018-09-21T15:23:08.752Z,21.32
2018-09-21T15:24:08.635Z,21.41
2018-09-21T15:25:08.518Z,21.39
2018-09-21T15:26:08.400Z,21.44
2018-09-21T15:27:08.285Z,21.44
2018-09-21T15:28:08.167Z,21.48
2018-09-21T15:29:08.048Z,21.51
2018-09-21T15:30:07.940Z,21.46
2018-09-21T15:31:07.831Z,21.45
2018-09-21T15:32:07.723Z,21.45
2018-09-21T15:33:07.577Z,21.45
2018-09-21T15:34:07.460Z,21.45
2018-09-21T15:35:07.343Z,21.35
2018-09-21T15:36:07.224Z,21.32
2018-09-21T15:37:07.110Z,21.27
2018-09-21T15:38:06.989Z,21.38
2018-09-21T15:39:06.876Z,21.51
2018-09-21T15:40:06.755Z,21.51
2018-09-21T15:41:06.640Z,21.56
2018-09-21T15:42:06.519Z,21.63
2018-09-21T15:43:06.464Z,21.61
2018-09-21T15:44:06.285Z,21.71
2018-09-21T15:45:06.168Z,21.64
2018-09-21T15:46:06.066Z,21.69
2018-09-21T15:47:05.932Z,21.67
2018-09-21T15:48:05.816Z,21.72
2018-09-21T15:49:05.700Z,21.60
2018-09-21T15:50:05.579Z,21.63
2018-09-21T15:51:05.464Z,21.57
2018-09-21T15:52:05.344Z,21.56
2018-09-21T15:53:05.229Z,21.45
2018-09-21T15:54:05.111Z,21.45
2018-09-21T15:55:05.053Z,21.50
2018-09-21T15:56:04.968Z,21.46
2018-09-21T15:57:04.764Z,21.48
2018-09-21T15:58:04.640Z,21.46
2018-09-21T15:59:04.525Z,21.48
2018-09-21T16:00:04.407Z,21.44
2018-09-21T16:01:04.287Z,21.41
2018-09-21T16:02:04.170Z,21.38
2018-09-21T16:03:04.055Z,21.38
2018-09-21T16:04:03.935Z,21.23
2018-09-21T16:05:03.852Z,21.32
2018-09-21T16:06:03.740Z,21.26
2018-09-21T16:07:03.588Z,21.36
2018-09-21T16:08:03.462Z,21.38
2018-09-21T16:09:03.346Z,21.41
2018-09-21T16:10:03.229Z,21.26
2018-09-21T16:11:03.112Z,21.01
2018-09-21T16:12:02.995Z,20.91
2018-09-21T16:13:02.979Z,20.95
2018-09-21T16:14:02.768Z,20.95
2018-09-21T16:15:02.639Z,20.95
2018-09-21T16:16:02.522Z,20.91
2018-09-21T16:17:02.405Z,20.95
2018-09-21T16:18:02.286Z,21.04
2018-09-21T16:19:02.171Z,21.06
2018-09-21T16:20:02.050Z,20.99
2018-09-21T16:21:01.964Z,20.96
2018-09-21T16:22:01.817Z,20.90
2018-09-21T16:23:01.728Z,20.72
2018-09-21T16:24:01.611Z,20.68
2018-09-21T16:25:01.462Z,20.59
2018-09-21T16:26:01.347Z,20.47
2018-09-21T16:27:01.226Z,20.43
2018-09-21T16:28:01.111Z,20.46
2018-09-21T16:29:00.992Z,20.39
2018-09-21T16:30:00.873Z,20.42
2018-09-21T16:31:00.755Z,20.54
2018-09-21T16:32:00.637Z,20.59
2018-09-21T16:33:00.572Z,20.54
2018-09-21T16:34:00.401Z,20.47
2018-09-21T16:35:00.284Z,20.33
2018-09-21T16:36:00.212Z,20.33
2018-09-21T16:37:00.043Z,20.39
2018-09-21T16:37:59.943Z,20.42
2018-09-21T16:38:59.867Z,20.30
2018-09-21T16:39:59.761Z,20.33
2018-09-21T16:40:59.575Z,20.25
2018-09-21T16:41:59.495Z,20.16
2018-09-21T16:42:59.335Z,20.15
2018-09-21T16:43:59.215Z,20.12
2018-09-21T16:44:59.172Z,20.18
2018-09-21T16:45:59.087Z,20.09
2018-09-21T16:46:58.861Z,20.03
2018-09-21T16:47:58.742Z,20.15
2018-09-21T16:48:58.624Z,20.05
2018-09-21T16:49:58.504Z,20.06
2018-09-21T16:50:58.432Z,20.09
2018-09-21T16:51:58.267Z,20.06
2018-09-21T16:52:58.154Z,20.02
2018-09-21T16:53:58.033Z,20.06
2018-09-21T16:54:57.913Z,20.05
2018-09-21T16:55:57.796Z,20.06
2018-09-21T16:56:57.675Z,20.05
2018-09-21T16:57:57.595Z,20.06
2018-09-21T16:58:57.527Z,20.08
2018-09-21T16:59:57.318Z,20.15
2018-09-21T17:00:57.202Z,20.02
2018-09-21T17:01:57.083Z,20.05
2018-09-21T17:02:56.964Z,19.91
2018-09-21T17:03:56.847Z,19.86
2018-09-21T17:04:56.919Z,19.88
2018-09-21T17:05:56.641Z,19.79
2018-09-21T17:06:56.549Z,19.69
2018-09-21T17:07:56.370Z,19.80
2018-09-21T17:08:56.254Z,19.88
2018-09-21T17:09:56.140Z,19.91
2018-09-21T17:10:56.015Z,19.84
2018-09-21T17:11:55.896Z,19.93
2018-09-21T17:12:55.776Z,19.75
2018-09-21T17:13:55.658Z,19.78
2018-09-21T17:14:55.540Z,19.73
2018-09-21T17:15:55.422Z,19.79
2018-09-21T17:16:55.301Z,19.76
2018-09-21T17:17:55.184Z,19.83
2018-09-21T17:18:55.063Z,19.79
2018-09-21T17:19:54.943Z,19.80
2018-09-21T17:20:54.882Z,19.78
2018-09-21T17:21:54.707Z,19.61
2018-09-21T17:22:54.591Z,19.50
2018-09-21T17:23:54.469Z,19.46
2018-09-21T17:24:54.353Z,19.42
2018-09-21T17:25:54.238Z,19.38
2018-09-21T17:26:54.113Z,19.33
2018-09-21T17:27:53.994Z,19.47
2018-09-21T17:28:53.871Z,19.48
2018-09-21T17:29:53.755Z,19.50
2018-09-21T17:30:53.634Z,19.35
2018-09-21T17:31:53.524Z,19.38
2018-09-21T17:32:53.398Z,19.32
2018-09-21T17:33:53.277Z,19.18
2018-09-21T17:34:53.159Z,19.29
2018-09-21T17:35:53.037Z,19.35
2018-09-21T17:36:52.927Z,19.33
2018-09-21T17:37:52.802Z,19.32
2018-09-21T17:38:52.683Z,19.31
2018-09-21T17:39:52.571Z,19.23
2018-09-21T17:40:52.441Z,19.17
2018-09-21T17:41:52.333Z,19.08
2018-09-21T17:42:52.205Z,18.86
2018-09-21T17:43:52.107Z,18.76
2018-09-21T17:44:51.968Z,18.76
2018-09-21T17:45:51.847Z,18.70
2018-09-21T17:46:51.740Z,18.83
2018-09-21T17:47:51.607Z,18.68
2018-09-21T17:48:51.493Z,18.61
2018-09-21T17:49:51.370Z,18.61
2018-09-21T17:50:51.249Z,18.57
2018-09-21T17:51:51.136Z,18.57
2018-09-21T17:52:51.011Z,18.46
2018-09-21T17:53:50.891Z,18.57
2018-09-21T17:54:50.771Z,18.70
2018-09-21T17:55:50.652Z,18.72
2018-09-21T17:56:50.532Z,18.73
2018-09-21T17:57:50.412Z,18.76
2018-09-21T17:58:50.292Z,18.73
2018-09-21T17:59:50.213Z,18.82
2018-09-21T18:00:50.089Z,18.95
2018-09-21T18:01:49.935Z,18.82
2018-09-21T18:02:49.816Z,18.86
2018-09-21T18:03:49.703Z,18.68
2018-09-21T18:04:49.577Z,18.72
2018-09-21T18:05:49.454Z,18.68
2018-09-21T18:06:49.337Z,18.59
2018-09-21T18:07:49.215Z,18.61
2018-09-21T18:08:49.096Z,18.58
2018-09-21T18:09:48.979Z,18.59
2018-09-21T18:10:48.858Z,18.57
2018-09-21T18:11:48.737Z,18.58
2018-09-21T18:12:48.619Z,18.58
2018-09-21T18:13:48.498Z,18.47
2018-09-21T18:14:48.381Z,18.55
2018-09-21T18:15:48.257Z,18.58
2018-09-21T18:16:48.141Z,18.58
2018-09-21T18:17:48.022Z,18.67
2018-09-21T18:18:47.897Z,18.74
2018-09-21T18:19:47.802Z,18.70
2018-09-21T18:20:47.657Z,18.67
2018-09-21T18:21:47.539Z,18.62
2018-09-21T18:22:47.435Z,18.70
2018-09-21T18:23:47.301Z,18.67
2018-09-21T18:24:47.179Z,18.59
2018-09-21T18:25:47.153Z,18.46
2018-09-21T18:26:46.939Z,18.47
2018-09-21T18:27:46.820Z,18.46
2018-09-21T18:28:46.722Z,18.39
2018-09-21T18:29:46.581Z,18.40
2018-09-21T18:30:46.463Z,18.36
2018-09-21T18:31:46.343Z,18.29
2018-09-21T18:32:46.309Z,18.29
2018-09-21T18:33:46.115Z,18.29
2018-09-21T18:34:45.997Z,18.29
2018-09-21T18:35:45.870Z,18.28
2018-09-21T18:36:45.740Z,18.39
2018-09-21T18:37:45.650Z,18.40
2018-09-21T18:38:45.501Z,18.39
2018-09-21T18:39:45.381Z,18.46
2018-09-21T18:40:45.260Z,18.44
2018-09-21T18:41:45.160Z,18.40
2018-09-21T18:42:45.019Z,18.42
2018-09-21T18:43:44.898Z,18.44
2018-09-21T18:44:44.783Z,18.43
2018-09-21T18:45:44.658Z,18.40
2018-09-21T18:46:44.559Z,18.39
2018-09-21T18:47:44.417Z,18.15
2018-09-21T18:48:44.297Z,17.89
2018-09-21T18:49:44.202Z,17.79
2018-09-21T18:50:44.170Z,17.54
2018-09-21T18:51:43.938Z,17.00
2018-09-21T18:52:43.818Z,16.60
2018-09-21T18:53:43.707Z,16.44
2018-09-21T18:54:43.614Z,16.42
2018-09-21T18:55:43.456Z,16.48
2018-09-21T18:56:43.338Z,16.42
2018-09-21T18:57:43.230Z,16.50
2018-09-21T18:58:43.095Z,16.48
2018-09-21T18:59:42.975Z,16.49
2018-09-21T19:00:42.857Z,16.49
2018-09-21T19:01:42.732Z,16.53
2018-09-21T19:02:42.615Z,16.58
2018-09-21T19:03:42.536Z,16.50
2018-09-21T19:04:42.373Z,16.35
2018-09-21T19:05:42.253Z,16.27
2018-09-21T19:06:42.131Z,16.16
2018-09-21T19:07:42.028Z,16.25
2018-09-21T19:08:41.891Z,16.23
2018-09-21T19:09:41.768Z,16.22
2018-09-21T19:10:41.652Z,16.22
2018-09-21T19:11:41.525Z,16.26
2018-09-21T19:12:41.404Z,16.23
2018-09-21T19:13:41.284Z,16.31
2018-09-21T19:14:41.164Z,16.35
2018-09-21T19:15:41.040Z,16.38
2018-09-21T19:16:40.920Z,16.25
2018-09-21T19:17:40.801Z,16.25
2018-09-21T19:18:40.679Z,16.20
2018-09-21T19:19:40.568Z,16.20
2018-09-21T19:20:40.435Z,16.20
2018-09-21T19:21:40.315Z,16.07
2018-09-21T19:22:40.203Z,16.03
2018-09-21T19:23:40.072Z,16.03
2018-09-21T19:24:39.951Z,15.97
2018-09-21T19:25:39.830Z,15.97
2018-09-21T19:26:39.771Z,15.89
2018-09-21T19:27:39.692Z,15.93
2018-09-21T19:28:39.469Z,15.84
2018-09-21T19:29:39.345Z,15.78
2018-09-21T19:30:39.223Z,15.76
2018-09-21T19:31:39.166Z,15.82
2018-09-21T19:32:38.980Z,15.88
2018-09-21T19:33:38.862Z,15.88
2018-09-21T19:34:38.740Z,15.88
2018-09-21T19:35:38.613Z,15.85
2018-09-21T19:36:38.493Z,15.86
2018-09-21T19:37:38.376Z,15.81
2018-09-21T19:38:38.308Z,15.78
2018-09-21T19:39:38.129Z,15.72
2018-09-21T19:40:38.018Z,15.70
2018-09-21T19:41:37.942Z,15.60
2018-09-21T19:42:37.841Z,15.68
2018-09-21T19:43:37.641Z,15.66
2018-09-21T19:44:37.519Z,15.64
2018-09-21T19:45:37.481Z,15.68
2018-09-21T19:46:37.355Z,15.61
2018-09-21T19:47:37.154Z,15.67
2018-09-21T19:48:37.082Z,15.61
2018-09-21T19:49:36.912Z,15.70
2018-09-21T19:50:36.792Z,15.64
2018-09-21T19:51:36.667Z,15.60
2018-09-21T19:52:36.574Z,15.61
2018-09-21T19:53:36.440Z,15.51
2018-09-21T19:54:36.350Z,15.51
2018-09-21T19:55:36.179Z,15.48
2018-09-21T19:56:36.063Z,15.49
2018-09-21T19:57:35.939Z,15.43
2018-09-21T19:58:35.823Z,15.51
2018-09-21T19:59:35.714Z,15.52
2018-09-21T20:00:35.570Z,15.59
2018-09-21T20:01:35.449Z,15.59
2018-09-21T20:02:35.329Z,15.66
2018-09-21T20:03:35.202Z,15.61
2018-09-21T20:04:35.084Z,15.64
2018-09-21T20:05:34.978Z,15.70
2018-09-21T20:06:34.839Z,15.61
2018-09-21T20:07:34.716Z,15.67
2018-09-21T20:08:34.598Z,15.66
2018-09-21T20:09:34.475Z,15.64
2018-09-21T20:10:34.489Z,15.63
2018-09-21T20:11:34.325Z,15.57
2018-09-21T20:12:34.114Z,15.60
2018-09-21T20:13:33.985Z,15.60
2018-09-21T20:14:33.863Z,15.68
2018-09-21T20:15:33.743Z,15.68
2018-09-21T20:16:33.654Z,15.67
2018-09-21T20:17:33.503Z,15.70
2018-09-21T20:18:33.417Z,15.72
2018-09-21T20:19:33.258Z,15.75
2018-09-21T20:20:33.139Z,15.81
2018-09-21T20:21:33.029Z,15.74
2018-09-21T20:22:32.901Z,15.74
2018-09-21T20:23:32.767Z,15.74
2018-09-21T20:24:32.643Z,15.70
2018-09-21T20:25:32.577Z,15.75
2018-09-21T20:26:32.405Z,15.72
2018-09-21T20:27:32.283Z,15.68
2018-09-21T20:28:32.172Z,15.72
2018-09-21T20:29:32.034Z,15.60
2018-09-21T20:30:31.918Z,15.70
2018-09-21T20:31:31.813Z,15.64
2018-09-21T20:32:31.668Z,15.63
2018-09-21T20:33:31.548Z,15.70
2018-09-21T20:34:31.465Z,15.67
2018-09-21T20:35:31.359Z,15.63
2018-09-21T20:36:31.181Z,15.68
2018-09-21T20:37:31.060Z,15.72
2018-09-21T20:38:30.939Z,15.72
2018-09-21T20:39:30.817Z,15.72
2018-09-21T20:40:30.695Z,15.70
2018-09-21T20:41:30.575Z,15.74
2018-09-21T20:42:30.455Z,15.72
2018-09-21T20:43:30.329Z,15.75
2018-09-21T20:44:30.211Z,15.72
2018-09-21T20:45:30.084Z,15.75
2018-09-21T20:46:29.966Z,15.84
2018-09-21T20:47:29.840Z,15.74
2018-09-21T20:48:29.721Z,15.81
2018-09-21T20:49:29.597Z,15.75
2018-09-21T20:50:29.479Z,15.85
2018-09-21T20:51:29.355Z,15.75
2018-09-21T20:52:29.240Z,15.72
2018-09-21T20:53:29.113Z,15.74
2018-09-21T20:54:28.991Z,15.70
2018-09-21T20:55:28.867Z,15.72
2018-09-21T20:56:28.746Z,15.75
2018-09-21T20:57:28.626Z,15.85
2018-09-21T20:58:28.505Z,15.97
2018-09-21T20:59:28.455Z,15.93
2018-09-21T21:00:28.260Z,15.92
2018-09-21T21:01:28.137Z,15.88
2018-09-21T21:02:28.020Z,15.93
2018-09-21T21:03:27.893Z,15.88
2018-09-21T21:04:27.773Z,15.89
2018-09-21T21:05:27.669Z,15.84
2018-09-21T21:06:27.529Z,15.85
2018-09-21T21:07:27.407Z,15.76
2018-09-21T21:08:27.286Z,15.66
2018-09-21T21:09:27.173Z,15.68
2018-09-21T21:10:27.045Z,15.54
2018-09-21T21:11:26.920Z,15.70
2018-09-21T21:12:26.801Z,15.63
2018-09-21T21:13:26.681Z,15.70
2018-09-21T21:14:26.558Z,15.72
2018-09-21T21:15:26.452Z,15.76
2018-09-21T21:16:26.321Z,15.74
2018-09-21T21:17:26.215Z,15.66
2018-09-21T21:18:26.076Z,15.46
2018-09-21T21:19:25.953Z,15.49
2018-09-21T21:20:25.829Z,15.38
2018-09-21T21:21:25.709Z,15.43
2018-09-21T21:22:25.635Z,15.41
2018-09-21T21:23:25.460Z,15.48
2018-09-21T21:24:25.339Z,15.54
2018-09-21T21:25:25.221Z,15.56
2018-09-21T21:26:25.124Z,15.66
2018-09-21T21:27:24.984Z,15.67
2018-09-21T21:28:24.855Z,15.76
2018-09-21T21:29:24.732Z,15.82
2018-09-21T21:30:24.611Z,15.93
2018-09-21T21:31:24.490Z,15.99
2018-09-21T21:32:24.371Z,16.03
2018-09-21T21:33:24.246Z,16.07
2018-09-21T21:34:24.123Z,16.11
2018-09-21T21:35:24.003Z,16.09
2018-09-21T21:36:23.879Z,16.12
2018-09-21T21:37:23.758Z,16.07
2018-09-21T21:38:23.638Z,15.96
2018-09-21T21:39:23.520Z,15.78
2018-09-21T21:40:23.396Z,15.60
2018-09-21T21:41:23.273Z,15.63
2018-09-21T21:42:23.151Z,15.42
2018-09-21T21:43:23.029Z,15.46
2018-09-21T21:44:22.909Z,15.30
2018-09-21T21:45:22.788Z,15.19
2018-09-21T21:46:22.665Z,15.15
2018-09-21T21:47:22.545Z,15.09
2018-09-21T21:48:22.422Z,15.08
2018-09-21T21:49:22.301Z,15.02
2018-09-21T21:50:22.180Z,15.12
2018-09-21T21:51:22.055Z,15.12
2018-09-21T21:52:21.935Z,15.06
2018-09-21T21:53:21.813Z,15.05
2018-09-21T21:54:21.695Z,15.11
2018-09-21T21:55:21.568Z,15.26
2018-09-21T21:56:21.447Z,15.15
2018-09-21T21:57:21.336Z,15.13
2018-09-21T21:58:21.205Z,15.05
2018-09-21T21:59:21.081Z,14.94
2018-09-21T22:00:21.009Z,14.98
2018-09-21T22:01:20.840Z,14.91
2018-09-21T22:02:20.718Z,14.86
2018-09-21T22:03:20.598Z,14.87
2018-09-21T22:04:20.471Z,14.86
2018-09-21T22:05:20.353Z,14.74
2018-09-21T22:06:20.230Z,14.71
2018-09-21T22:07:20.106Z,14.75
2018-09-21T22:08:19.988Z,14.81
2018-09-21T22:09:19.863Z,14.80
2018-09-21T22:10:19.743Z,14.69
2018-09-21T22:11:19.622Z,14.72
2018-09-21T22:12:19.497Z,14.69
2018-09-21T22:13:19.374Z,14.67
2018-09-21T22:14:19.252Z,14.57
2018-09-21T22:15:19.133Z,14.52
2018-09-21T22:16:19.009Z,14.44
2018-09-21T22:17:18.886Z,14.46
2018-09-21T22:18:18.767Z,14.44
2018-09-21T22:19:18.643Z,14.50
2018-09-21T22:20:18.522Z,14.52
2018-09-21T22:21:18.396Z,14.38
2018-09-21T22:22:18.274Z,14.34
2018-09-21T22:23:18.153Z,14.27
2018-09-21T22:24:18.032Z,14.21
2018-09-21T22:25:17.908Z,14.19
2018-09-21T22:26:17.786Z,14.28
2018-09-21T22:27:17.665Z,14.38
2018-09-21T22:28:17.541Z,14.37
2018-09-21T22:29:17.420Z,14.32
2018-09-21T22:30:17.297Z,14.37
2018-09-21T22:31:17.173Z,14.32
2018-09-21T22:32:17.058Z,14.31
2018-09-21T22:33:16.930Z,14.31
2018-09-21T22:34:16.813Z,14.29
2018-09-21T22:35:16.685Z,14.31
2018-09-21T22:36:16.564Z,14.34
2018-09-21T22:37:16.442Z,14.31
2018-09-21T22:38:16.320Z,14.39
2018-09-21T22:39:16.194Z,14.24
2018-09-21T22:40:16.076Z,14.10
2018-09-21T22:41:15.953Z,14.02
2018-09-21T22:42:15.829Z,13.77
2018-09-21T22:43:15.706Z,13.76
2018-09-21T22:44:15.584Z,13.62
2018-09-21T22:45:15.504Z,13.52
2018-09-21T22:46:15.338Z,13.58
2018-09-21T22:47:15.219Z,13.54
2018-09-21T22:48:15.094Z,13.63
2018-09-21T22:49:14.972Z,13.49
2018-09-21T22:50:14.849Z,13.52
2018-09-21T22:51:14.726Z,13.59
2018-09-21T22:52:14.602Z,13.47
2018-09-21T22:53:14.480Z,13.43
2018-09-21T22:54:14.357Z,13.44
2018-09-21T22:55:14.233Z,13.59
2018-09-21T22:56:14.112Z,13.59
2018-09-21T22:57:13.990Z,13.63
2018-09-21T22:58:13.865Z,13.71
2018-09-21T22:59:13.742Z,13.73
2018-09-21T23:00:13.623Z,13.76
2018-09-21T23:01:13.501Z,13.70
2018-09-21T23:02:13.377Z,13.76
2018-09-21T23:03:13.251Z,13.74
2018-09-21T23:04:13.128Z,13.62
2018-09-21T23:05:13.011Z,13.54
2018-09-21T23:06:12.882Z,13.51
2018-09-21T23:07:12.760Z,13.43
2018-09-21T23:08:12.639Z,13.44
2018-09-21T23:09:12.514Z,13.33
2018-09-21T23:10:12.393Z,13.21
2018-09-21T23:11:12.280Z,13.15
2018-09-21T23:12:12.145Z,13.00
2018-09-21T23:13:12.023Z,13.00
2018-09-21T23:14:11.905Z,12.85
2018-09-21T23:15:11.776Z,12.74
2018-09-21T23:16:11.657Z,12.89
2018-09-21T23:17:11.535Z,12.81
2018-09-21T23:18:11.409Z,12.85
2018-09-21T23:19:11.282Z,12.87
2018-09-21T23:20:11.163Z,13.00
2018-09-21T23:21:11.044Z,13.18
2018-09-21T23:22:10.917Z,13.24
2018-09-21T23:23:10.792Z,13.30
2018-09-21T23:24:10.714Z,13.33
2018-09-21T23:25:10.545Z,13.27
2018-09-21T23:26:10.424Z,13.49
2018-09-21T23:27:10.299Z,13.40
2018-09-21T23:28:10.179Z,13.41
2018-09-21T23:29:10.057Z,13.56
2018-09-21T23:30:09.932Z,13.56
2018-09-21T23:31:09.809Z,13.54
2018-09-21T23:32:09.686Z,13.47
2018-09-21T23:33:09.563Z,13.25
2018-09-21T23:34:09.440Z,13.02
2018-09-21T23:35:09.317Z,12.85
2018-09-21T23:36:09.200Z,12.93
2018-09-21T23:37:09.081Z,12.85
2018-09-21T23:38:08.946Z,12.81
2018-09-21T23:39:08.832Z,12.75
2018-09-21T23:40:08.699Z,12.70
2018-09-21T23:41:08.577Z,12.77
2018-09-21T23:42:08.453Z,12.70
2018-09-21T23:43:08.331Z,12.77
2018-09-21T23:44:08.210Z,12.64
2018-09-21T23:45:08.089Z,12.82
2018-09-21T23:46:07.962Z,12.89
2018-09-21T23:47:07.840Z,12.85
2018-09-21T23:48:07.717Z,12.70
2018-09-21T23:49:07.592Z,12.66
2018-09-21T23:50:07.471Z,12.66
2018-09-21T23:51:07.347Z,12.77
2018-09-21T23:52:07.220Z,12.67
2018-09-21T23:53:07.097Z,12.78
2018-09-21T23:54:06.976Z,12.52
2018-09-21T23:55:06.850Z,12.42
2018-09-21T23:56:06.728Z,12.42
2018-09-21T23:57:06.604Z,12.31
2018-09-21T23:58:06.480Z,12.31
2018-09-21T23:59:06.358Z,12.24
